sensor_id;sensor_type;location;lat;lon;timestamp;temperature;humidity
3876;DHT22;1953;51.222;6.624;2022-11-27T00:00:10;7.10;1.00
3876;DHT22;1953;51.222;6.624;2022-11-27T00:08:42;7.10;1.00
3876;DHT22;1953;51.222;6.624;2022-11-27T00:13:25;7.10;1.00
3876;DHT22;1953;51.222;6.624;2022-11-27T00:18:07;7.00;1.00
3876;DHT22;1953;51.222;6.624;2022-11-27T00:22:50;7.00;1.00
3876;DHT22;1953;51.222;6.624;2022-11-27T00:27:34;7.00;1.00
3876;DHT22;1953;51.222;6.624;2022-11-27T00:32:16;7.00;1.00
3876;DHT22;1953;51.222;6.624;2022-11-27T00:36:59;7.00;1.00
3876;DHT22;1953;51.222;6.624;2022-11-27T00:41:41;7.00;1.00
3876;DHT22;1953;51.222;6.624;2022-11-27T00:46:26;7.00;1.00
3876;DHT22;1953;51.222;6.624;2022-11-27T00:51:11;7.00;1.00
3876;DHT22;1953;51.222;6.624;2022-11-27T00:55:53;7.00;1.00
3876;DHT22;1953;51.222;6.624;2022-11-27T01:00:36;7.00;1.00
3876;DHT22;1953;51.222;6.624;2022-11-27T01:05:19;7.00;1.00
3876;DHT22;1953;51.222;6.624;2022-11-27T01:10:02;7.00;1.00
3876;DHT22;1953;51.222;6.624;2022-11-27T01:14:45;7.00;1.00
3876;DHT22;1953;51.222;6.624;2022-11-27T01:19:27;7.00;1.00
3876;DHT22;1953;51.222;6.624;2022-11-27T01:24:12;7.00;1.00
3876;DHT22;1953;51.222;6.624;2022-11-27T01:28:56;7.00;1.00
3876;DHT22;1953;51.222;6.624;2022-11-27T01:33:39;7.00;1.00
3876;DHT22;1953;51.222;6.624;2022-11-27T01:38:22;6.90;1.00
3876;DHT22;1953;51.222;6.624;2022-11-27T01:43:10;7.00;1.00
3876;DHT22;1953;51.222;6.624;2022-11-27T01:47:57;7.00;1.00
3876;DHT22;1953;51.222;6.624;2022-11-27T01:52:47;7.10;1.00
3876;DHT22;1953;51.222;6.624;2022-11-27T01:57:34;7.10;1.00
3876;DHT22;1953;51.222;6.624;2022-11-27T02:02:20;7.00;1.00
3876;DHT22;1953;51.222;6.624;2022-11-27T02:07:02;7.00;1.00
3876;DHT22;1953;51.222;6.624;2022-11-27T02:11:53;6.90;1.00
3876;DHT22;1953;51.222;6.624;2022-11-27T02:16:44;6.90;1.00
3876;DHT22;1953;51.222;6.624;2022-11-27T02:21:35;6.90;1.00
3876;DHT22;1953;51.222;6.624;2022-11-27T02:26:41;7.00;1.00
3876;DHT22;1953;51.222;6.624;2022-11-27T02:31:33;6.90;1.00
3876;DHT22;1953;51.222;6.624;2022-11-27T02:36:20;7.00;1.00
3876;DHT22;1953;51.222;6.624;2022-11-27T02:41:06;7.00;1.00
3876;DHT22;1953;51.222;6.624;2022-11-27T02:45:51;6.90;1.00
3876;DHT22;1953;51.222;6.624;2022-11-27T02:50:37;6.80;1.00
3876;DHT22;1953;51.222;6.624;2022-11-27T02:55:23;6.80;1.00
3876;DHT22;1953;51.222;6.624;2022-11-27T03:00:08;6.80;1.00
3876;DHT22;1953;51.222;6.624;2022-11-27T03:04:54;6.80;1.00
3876;DHT22;1953;51.222;6.624;2022-11-27T03:09:42;6.80;1.00
3876;DHT22;1953;51.222;6.624;2022-11-27T03:14:25;6.80;1.00
3876;DHT22;1953;51.222;6.624;2022-11-27T03:19:14;6.80;1.00
3876;DHT22;1953;51.222;6.624;2022-11-27T03:23:57;6.80;1.00
3876;DHT22;1953;51.222;6.624;2022-11-27T03:28:43;6.80;1.00
3876;DHT22;1953;51.222;6.624;2022-11-27T03:33:26;6.80;1.00
3876;DHT22;1953;51.222;6.624;2022-11-27T03:38:08;6.80;1.00
3876;DHT22;1953;51.222;6.624;2022-11-27T03:42:57;6.80;1.00
3876;DHT22;1953;51.222;6.624;2022-11-27T03:47:50;6.70;1.00
3876;DHT22;1953;51.222;6.624;2022-11-27T03:52:42;6.70;1.00
3876;DHT22;1953;51.222;6.624;2022-11-27T03:57:28;6.80;1.00
3876;DHT22;1953;51.222;6.624;2022-11-27T04:02:14;6.80;1.00
3876;DHT22;1953;51.222;6.624;2022-11-27T04:06:59;6.80;1.00
3876;DHT22;1953;51.222;6.624;2022-11-27T04:11:41;6.80;1.00
3876;DHT22;1953;51.222;6.624;2022-11-27T04:16:24;6.70;1.00
3876;DHT22;1953;51.222;6.624;2022-11-27T04:21:06;6.80;1.00
3876;DHT22;1953;51.222;6.624;2022-11-27T04:25:50;6.80;1.00
3876;DHT22;1953;51.222;6.624;2022-11-27T04:30:33;6.90;1.00
3876;DHT22;1953;51.222;6.624;2022-11-27T04:35:15;6.90;1.00
3876;DHT22;1953;51.222;6.624;2022-11-27T04:39:58;6.90;1.00
3876;DHT22;1953;51.222;6.624;2022-11-27T04:44:41;6.80;1.00
3876;DHT22;1953;51.222;6.624;2022-11-27T04:49:24;6.90;1.00
3876;DHT22;1953;51.222;6.624;2022-11-27T04:54:06;6.90;1.00
3876;DHT22;1953;51.222;6.624;2022-11-27T04:58:48;6.90;1.00
3876;DHT22;1953;51.222;6.624;2022-11-27T05:03:32;6.90;1.00
3876;DHT22;1953;51.222;6.624;2022-11-27T05:08:15;6.90;1.00
3876;DHT22;1953;51.222;6.624;2022-11-27T05:12:57;6.90;1.00
3876;DHT22;1953;51.222;6.624;2022-11-27T05:17:39;6.90;1.00
3876;DHT22;1953;51.222;6.624;2022-11-27T05:22:23;6.90;1.00
3876;DHT22;1953;51.222;6.624;2022-11-27T05:27:05;6.90;1.00
3876;DHT22;1953;51.222;6.624;2022-11-27T05:31:48;6.80;1.00
3876;DHT22;1953;51.222;6.624;2022-11-27T05:36:31;6.80;1.00
3876;DHT22;1953;51.222;6.624;2022-11-27T05:41:15;6.80;1.00
3876;DHT22;1953;51.222;6.624;2022-11-27T05:46:02;6.80;1.00
3876;DHT22;1953;51.222;6.624;2022-11-27T05:50:45;6.80;1.00
3876;DHT22;1953;51.222;6.624;2022-11-27T05:55:27;6.80;1.00
3876;DHT22;1953;51.222;6.624;2022-11-27T06:00:13;6.80;1.00
3876;DHT22;1953;51.222;6.624;2022-11-27T06:04:55;6.80;1.00
3876;DHT22;1953;51.222;6.624;2022-11-27T06:09:38;6.80;1.00
3876;DHT22;1953;51.222;6.624;2022-11-27T06:14:20;6.90;1.00
3876;DHT22;1953;51.222;6.624;2022-11-27T06:19:04;6.90;1.00
3876;DHT22;1953;51.222;6.624;2022-11-27T06:23:47;6.90;1.00
3876;DHT22;1953;51.222;6.624;2022-11-27T06:28:29;6.80;1.00
3876;DHT22;1953;51.222;6.624;2022-11-27T06:33:12;6.80;1.00
3876;DHT22;1953;51.222;6.624;2022-11-27T06:37:55;6.80;1.00
3876;DHT22;1953;51.222;6.624;2022-11-27T06:42:38;6.90;1.00
3876;DHT22;1953;51.222;6.624;2022-11-27T06:47:20;6.90;1.00
3876;DHT22;1953;51.222;6.624;2022-11-27T06:52:03;7.00;1.00
3876;DHT22;1953;51.222;6.624;2022-11-27T06:56:48;7.00;1.00
3876;DHT22;1953;51.222;6.624;2022-11-27T07:01:31;6.90;1.00
3876;DHT22;1953;51.222;6.624;2022-11-27T07:06:16;7.00;1.00
3876;DHT22;1953;51.222;6.624;2022-11-27T07:11:00;7.00;1.00
3876;DHT22;1953;51.222;6.624;2022-11-27T07:15:44;7.10;1.00
3876;DHT22;1953;51.222;6.624;2022-11-27T07:20:27;7.10;1.00
3876;DHT22;1953;51.222;6.624;2022-11-27T07:25:09;7.20;1.00
3876;DHT22;1953;51.222;6.624;2022-11-27T07:29:51;7.20;1.00
3876;DHT22;1953;51.222;6.624;2022-11-27T07:34:35;7.20;1.00
3876;DHT22;1953;51.222;6.624;2022-11-27T07:39:18;7.30;1.00
3876;DHT22;1953;51.222;6.624;2022-11-27T07:44:00;7.30;1.00
3876;DHT22;1953;51.222;6.624;2022-11-27T07:48:43;7.40;1.00
3876;DHT22;1953;51.222;6.624;2022-11-27T07:53:26;7.50;1.00
3876;DHT22;1953;51.222;6.624;2022-11-27T07:58:09;7.50;1.00
3876;DHT22;1953;51.222;6.624;2022-11-27T08:02:51;7.60;1.00
3876;DHT22;1953;51.222;6.624;2022-11-27T08:07:33;7.70;1.00
3876;DHT22;1953;51.222;6.624;2022-11-27T08:12:17;7.80;1.00
3876;DHT22;1953;51.222;6.624;2022-11-27T08:17:00;7.90;1.00
3876;DHT22;1953;51.222;6.624;2022-11-27T08:21:42;8.00;1.00
3876;DHT22;1953;51.222;6.624;2022-11-27T08:26:25;8.10;1.00
3876;DHT22;1953;51.222;6.624;2022-11-27T08:31:11;8.20;1.00
3876;DHT22;1953;51.222;6.624;2022-11-27T08:35:54;8.20;1.00
3876;DHT22;1953;51.222;6.624;2022-11-27T08:40:36;8.30;1.00
3876;DHT22;1953;51.222;6.624;2022-11-27T08:45:18;8.40;1.00
3876;DHT22;1953;51.222;6.624;2022-11-27T08:50:02;8.40;1.00
3876;DHT22;1953;51.222;6.624;2022-11-27T08:54:45;8.50;1.00
3876;DHT22;1953;51.222;6.624;2022-11-27T08:59:28;8.50;1.00
3876;DHT22;1953;51.222;6.624;2022-11-27T09:04:10;8.50;1.00
3876;DHT22;1953;51.222;6.624;2022-11-27T09:08:54;8.60;1.00
3876;DHT22;1953;51.222;6.624;2022-11-27T09:13:37;8.70;1.00
3876;DHT22;1953;51.222;6.624;2022-11-27T09:18:20;8.80;1.00
3876;DHT22;1953;51.222;6.624;2022-11-27T09:23:02;8.90;1.00
3876;DHT22;1953;51.222;6.624;2022-11-27T09:27:46;9.00;1.00
3876;DHT22;1953;51.222;6.624;2022-11-27T09:32:28;9.10;1.00
3876;DHT22;1953;51.222;6.624;2022-11-27T09:37:11;9.20;1.00
3876;DHT22;1953;51.222;6.624;2022-11-27T09:41:55;9.20;1.00
3876;DHT22;1953;51.222;6.624;2022-11-27T09:46:40;9.20;1.00
3876;DHT22;1953;51.222;6.624;2022-11-27T09:51:27;9.20;1.00
3876;DHT22;1953;51.222;6.624;2022-11-27T09:56:15;9.20;1.00
3876;DHT22;1953;51.222;6.624;2022-11-27T10:00:58;9.30;1.00
3876;DHT22;1953;51.222;6.624;2022-11-27T10:05:46;9.30;1.00
3876;DHT22;1953;51.222;6.624;2022-11-27T10:10:38;9.40;1.00
3876;DHT22;1953;51.222;6.624;2022-11-27T10:15:31;9.30;1.00
3876;DHT22;1953;51.222;6.624;2022-11-27T10:20:22;9.50;1.00
3876;DHT22;1953;51.222;6.624;2022-11-27T10:25:16;9.60;1.00
3876;DHT22;1953;51.222;6.624;2022-11-27T10:30:00;9.70;1.00
3876;DHT22;1953;51.222;6.624;2022-11-27T10:34:47;9.70;1.00
3876;DHT22;1953;51.222;6.624;2022-11-27T10:39:34;10.30;1.00
3876;DHT22;1953;51.222;6.624;2022-11-27T10:44:27;9.80;1.00
3876;DHT22;1953;51.222;6.624;2022-11-27T10:49:11;9.70;1.00
3876;DHT22;1953;51.222;6.624;2022-11-27T10:53:53;9.80;1.00
3876;DHT22;1953;51.222;6.624;2022-11-27T10:58:41;9.70;1.00
3876;DHT22;1953;51.222;6.624;2022-11-27T11:03:26;9.70;1.00
3876;DHT22;1953;51.222;6.624;2022-11-27T11:08:15;9.70;1.00
3876;DHT22;1953;51.222;6.624;2022-11-27T11:13:12;9.80;1.00
3876;DHT22;1953;51.222;6.624;2022-11-27T11:17:55;9.80;1.00
3876;DHT22;1953;51.222;6.624;2022-11-27T11:22:44;9.90;1.00
3876;DHT22;1953;51.222;6.624;2022-11-27T11:27:29;9.90;1.00
3876;DHT22;1953;51.222;6.624;2022-11-27T11:32:14;10.00;1.00
3876;DHT22;1953;51.222;6.624;2022-11-27T11:36:58;10.00;1.00
3876;DHT22;1953;51.222;6.624;2022-11-27T11:41:44;10.20;1.00
3876;DHT22;1953;51.222;6.624;2022-11-27T11:46:29;10.30;1.00
3876;DHT22;1953;51.222;6.624;2022-11-27T11:51:18;10.30;1.00
3876;DHT22;1953;51.222;6.624;2022-11-27T11:56:11;10.50;1.00
3876;DHT22;1953;51.222;6.624;2022-11-27T12:01:15;10.70;1.00
3876;DHT22;1953;51.222;6.624;2022-11-27T12:09:50;10.80;1.00
3876;DHT22;1953;51.222;6.624;2022-11-27T12:14:41;10.80;1.00
3876;DHT22;1953;51.222;6.624;2022-11-27T12:19:46;10.80;1.00
3876;DHT22;1953;51.222;6.624;2022-11-27T12:24:42;10.80;1.00
3876;DHT22;1953;51.222;6.624;2022-11-27T12:29:38;10.80;1.00
3876;DHT22;1953;51.222;6.624;2022-11-27T12:34:34;10.90;1.00
3876;DHT22;1953;51.222;6.624;2022-11-27T12:39:23;10.90;1.00
3876;DHT22;1953;51.222;6.624;2022-11-27T12:44:15;10.90;1.00
3876;DHT22;1953;51.222;6.624;2022-11-27T12:49:04;10.90;1.00
3876;DHT22;1953;51.222;6.624;2022-11-27T12:53:54;11.10;1.00
3876;DHT22;1953;51.222;6.624;2022-11-27T12:58:41;11.20;1.00
3876;DHT22;1953;51.222;6.624;2022-11-27T13:03:29;11.40;1.00
3876;DHT22;1953;51.222;6.624;2022-11-27T13:08:22;11.50;1.00
3876;DHT22;1953;51.222;6.624;2022-11-27T13:13:07;11.50;1.00
3876;DHT22;1953;51.222;6.624;2022-11-27T13:17:58;11.40;1.00
3876;DHT22;1953;51.222;6.624;2022-11-27T13:22:43;11.40;1.00
3876;DHT22;1953;51.222;6.624;2022-11-27T13:27:29;11.40;1.00
3876;DHT22;1953;51.222;6.624;2022-11-27T13:32:19;11.40;1.00
3876;DHT22;1953;51.222;6.624;2022-11-27T13:37:05;12.70;1.00
3876;DHT22;1953;51.222;6.624;2022-11-27T13:42:07;11.30;1.00
3876;DHT22;1953;51.222;6.624;2022-11-27T13:46:59;11.20;1.00
3876;DHT22;1953;51.222;6.624;2022-11-27T13:51:45;11.20;1.00
3876;DHT22;1953;51.222;6.624;2022-11-27T13:56:28;11.10;1.00
3876;DHT22;1953;51.222;6.624;2022-11-27T14:01:14;11.10;1.00
3876;DHT22;1953;51.222;6.624;2022-11-27T14:05:58;11.10;1.00
3876;DHT22;1953;51.222;6.624;2022-11-27T14:10:48;11.00;1.00
3876;DHT22;1953;51.222;6.624;2022-11-27T14:15:32;10.90;1.00
3876;DHT22;1953;51.222;6.624;2022-11-27T14:20:23;10.90;1.00
3876;DHT22;1953;51.222;6.624;2022-11-27T14:25:17;10.80;1.00
3876;DHT22;1953;51.222;6.624;2022-11-27T14:30:10;10.90;1.00
3876;DHT22;1953;51.222;6.624;2022-11-27T14:34:55;10.90;1.00
3876;DHT22;1953;51.222;6.624;2022-11-27T14:39:38;10.80;1.00
3876;DHT22;1953;51.222;6.624;2022-11-27T14:44:21;10.80;1.00
3876;DHT22;1953;51.222;6.624;2022-11-27T14:49:04;10.80;1.00
3876;DHT22;1953;51.222;6.624;2022-11-27T14:53:48;10.80;1.00
3876;DHT22;1953;51.222;6.624;2022-11-27T14:58:31;10.70;1.00
3876;DHT22;1953;51.222;6.624;2022-11-27T15:03:16;10.60;1.00
3876;DHT22;1953;51.222;6.624;2022-11-27T15:08:00;10.50;1.00
3876;DHT22;1953;51.222;6.624;2022-11-27T15:12:46;10.40;1.00
3876;DHT22;1953;51.222;6.624;2022-11-27T15:17:31;10.40;1.00
3876;DHT22;1953;51.222;6.624;2022-11-27T15:22:17;10.30;1.00
3876;DHT22;1953;51.222;6.624;2022-11-27T15:27:15;10.30;1.00
3876;DHT22;1953;51.222;6.624;2022-11-27T15:31:58;10.20;1.00
3876;DHT22;1953;51.222;6.624;2022-11-27T15:36:41;10.10;1.00
3876;DHT22;1953;51.222;6.624;2022-11-27T15:41:27;10.10;1.00
3876;DHT22;1953;51.222;6.624;2022-11-27T15:46:11;10.10;1.00
3876;DHT22;1953;51.222;6.624;2022-11-27T15:50:53;10.10;1.00
3876;DHT22;1953;51.222;6.624;2022-11-27T15:55:36;10.00;1.00
3876;DHT22;1953;51.222;6.624;2022-11-27T16:00:20;10.00;1.00
3876;DHT22;1953;51.222;6.624;2022-11-27T16:05:03;10.00;1.00
3876;DHT22;1953;51.222;6.624;2022-11-27T16:09:46;10.00;1.00
3876;DHT22;1953;51.222;6.624;2022-11-27T16:14:28;9.90;1.00
3876;DHT22;1953;51.222;6.624;2022-11-27T16:19:12;9.90;1.00
3876;DHT22;1953;51.222;6.624;2022-11-27T16:23:58;9.90;1.00
3876;DHT22;1953;51.222;6.624;2022-11-27T16:28:41;9.90;1.00
3876;DHT22;1953;51.222;6.624;2022-11-27T16:33:24;9.90;1.00
3876;DHT22;1953;51.222;6.624;2022-11-27T16:38:08;9.90;1.00
3876;DHT22;1953;51.222;6.624;2022-11-27T16:42:51;9.80;1.00
3876;DHT22;1953;51.222;6.624;2022-11-27T16:47:33;9.80;1.00
3876;DHT22;1953;51.222;6.624;2022-11-27T16:52:15;9.80;1.00
3876;DHT22;1953;51.222;6.624;2022-11-27T16:56:59;9.80;1.00
3876;DHT22;1953;51.222;6.624;2022-11-27T17:01:42;9.80;1.00
3876;DHT22;1953;51.222;6.624;2022-11-27T17:06:25;9.80;1.00
3876;DHT22;1953;51.222;6.624;2022-11-27T17:11:09;9.70;1.00
3876;DHT22;1953;51.222;6.624;2022-11-27T17:15:53;9.70;1.00
3876;DHT22;1953;51.222;6.624;2022-11-27T17:20:36;9.70;1.00
3876;DHT22;1953;51.222;6.624;2022-11-27T17:25:19;9.70;1.00
3876;DHT22;1953;51.222;6.624;2022-11-27T17:30:01;9.80;1.00
3876;DHT22;1953;51.222;6.624;2022-11-27T17:34:45;9.70;1.00
3876;DHT22;1953;51.222;6.624;2022-11-27T17:39:29;9.70;1.00
3876;DHT22;1953;51.222;6.624;2022-11-27T17:44:11;9.70;1.00
3876;DHT22;1953;51.222;6.624;2022-11-27T17:48:55;9.60;1.00
3876;DHT22;1953;51.222;6.624;2022-11-27T17:53:40;9.60;1.00
3876;DHT22;1953;51.222;6.624;2022-11-27T17:58:22;9.50;1.00
3876;DHT22;1953;51.222;6.624;2022-11-27T18:03:05;9.50;1.00
3876;DHT22;1953;51.222;6.624;2022-11-27T18:07:47;9.50;1.00
3876;DHT22;1953;51.222;6.624;2022-11-27T18:12:31;9.50;1.00
3876;DHT22;1953;51.222;6.624;2022-11-27T18:17:13;9.60;1.00
3876;DHT22;1953;51.222;6.624;2022-11-27T18:21:57;9.50;1.00
3876;DHT22;1953;51.222;6.624;2022-11-27T18:26:40;9.40;1.00
3876;DHT22;1953;51.222;6.624;2022-11-27T18:31:24;9.50;1.00
3876;DHT22;1953;51.222;6.624;2022-11-27T18:36:09;9.40;1.00
3876;DHT22;1953;51.222;6.624;2022-11-27T18:40:52;9.30;1.00
3876;DHT22;1953;51.222;6.624;2022-11-27T18:45:34;9.30;1.00
3876;DHT22;1953;51.222;6.624;2022-11-27T18:50:18;9.40;1.00
3876;DHT22;1953;51.222;6.624;2022-11-27T18:55:00;9.40;1.00
3876;DHT22;1953;51.222;6.624;2022-11-27T18:59:44;9.30;1.00
3876;DHT22;1953;51.222;6.624;2022-11-27T19:04:26;9.20;1.00
3876;DHT22;1953;51.222;6.624;2022-11-27T19:09:10;9.20;1.00
3876;DHT22;1953;51.222;6.624;2022-11-27T19:13:54;9.10;1.00
3876;DHT22;1953;51.222;6.624;2022-11-27T19:18:37;9.10;1.00
3876;DHT22;1953;51.222;6.624;2022-11-27T19:23:19;9.00;1.00
3876;DHT22;1953;51.222;6.624;2022-11-27T19:28:03;9.10;1.00
3876;DHT22;1953;51.222;6.624;2022-11-27T19:32:46;9.00;1.00
3876;DHT22;1953;51.222;6.624;2022-11-27T19:37:28;8.90;1.00
3876;DHT22;1953;51.222;6.624;2022-11-27T19:42:11;9.00;1.00
3876;DHT22;1953;51.222;6.624;2022-11-27T19:46:54;8.90;1.00
3876;DHT22;1953;51.222;6.624;2022-11-27T19:51:37;9.00;1.00
3876;DHT22;1953;51.222;6.624;2022-11-27T19:56:20;9.00;1.00
3876;DHT22;1953;51.222;6.624;2022-11-27T20:01:06;9.00;1.00
3876;DHT22;1953;51.222;6.624;2022-11-27T20:06:00;9.10;1.00
3876;DHT22;1953;51.222;6.624;2022-11-27T20:10:47;9.00;1.00
3876;DHT22;1953;51.222;6.624;2022-11-27T20:15:30;8.90;1.00
3876;DHT22;1953;51.222;6.624;2022-11-27T20:20:12;8.90;1.00
3876;DHT22;1953;51.222;6.624;2022-11-27T20:24:58;8.90;1.00
3876;DHT22;1953;51.222;6.624;2022-11-27T20:29:40;8.90;1.00
3876;DHT22;1953;51.222;6.624;2022-11-27T20:34:23;9.00;1.00
3876;DHT22;1953;51.222;6.624;2022-11-27T20:39:05;9.00;1.00
3876;DHT22;1953;51.222;6.624;2022-11-27T20:43:53;9.00;1.00
3876;DHT22;1953;51.222;6.624;2022-11-27T20:48:36;9.00;1.00
3876;DHT22;1953;51.222;6.624;2022-11-27T20:53:18;8.90;1.00
3876;DHT22;1953;51.222;6.624;2022-11-27T20:58:01;9.00;1.00
3876;DHT22;1953;51.222;6.624;2022-11-27T21:02:45;9.00;1.00
3876;DHT22;1953;51.222;6.624;2022-11-27T21:07:27;8.90;1.00
3876;DHT22;1953;51.222;6.624;2022-11-27T21:12:10;8.90;1.00
3876;DHT22;1953;51.222;6.624;2022-11-27T21:16:53;8.80;1.00
3876;DHT22;1953;51.222;6.624;2022-11-27T21:21:40;8.80;1.00
3876;DHT22;1953;51.222;6.624;2022-11-27T21:26:22;8.80;1.00
3876;DHT22;1953;51.222;6.624;2022-11-27T21:31:07;8.80;1.00
3876;DHT22;1953;51.222;6.624;2022-11-27T21:35:53;8.70;1.00
3876;DHT22;1953;51.222;6.624;2022-11-27T21:40:37;8.80;1.00
3876;DHT22;1953;51.222;6.624;2022-11-27T21:45:20;8.80;1.00
3876;DHT22;1953;51.222;6.624;2022-11-27T21:50:03;8.70;1.00
3876;DHT22;1953;51.222;6.624;2022-11-27T21:54:45;8.70;1.00
3876;DHT22;1953;51.222;6.624;2022-11-27T21:59:29;8.60;1.00
3876;DHT22;1953;51.222;6.624;2022-11-27T22:04:12;8.60;1.00
3876;DHT22;1953;51.222;6.624;2022-11-27T22:08:56;8.70;1.00
3876;DHT22;1953;51.222;6.624;2022-11-27T22:13:40;8.60;1.00
3876;DHT22;1953;51.222;6.624;2022-11-27T22:18:24;8.60;1.00
3876;DHT22;1953;51.222;6.624;2022-11-27T22:23:06;8.70;1.00
3876;DHT22;1953;51.222;6.624;2022-11-27T22:27:49;8.70;1.00
3876;DHT22;1953;51.222;6.624;2022-11-27T22:32:31;8.60;1.00
3876;DHT22;1953;51.222;6.624;2022-11-27T22:37:15;8.70;1.00
3876;DHT22;1953;51.222;6.624;2022-11-27T22:41:57;8.60;1.00
3876;DHT22;1953;51.222;6.624;2022-11-27T22:46:40;8.60;1.00
3876;DHT22;1953;51.222;6.624;2022-11-27T22:51:22;8.60;1.00
3876;DHT22;1953;51.222;6.624;2022-11-27T22:56:08;8.60;1.00
3876;DHT22;1953;51.222;6.624;2022-11-27T23:00:55;8.60;1.00
3876;DHT22;1953;51.222;6.624;2022-11-27T23:05:42;8.60;1.00
3876;DHT22;1953;51.222;6.624;2022-11-27T23:10:25;8.60;1.00
3876;DHT22;1953;51.222;6.624;2022-11-27T23:15:09;8.60;1.00
3876;DHT22;1953;51.222;6.624;2022-11-27T23:19:52;8.60;1.00
3876;DHT22;1953;51.222;6.624;2022-11-27T23:24:34;8.50;1.00
3876;DHT22;1953;51.222;6.624;2022-11-27T23:29:16;8.50;1.00
3876;DHT22;1953;51.222;6.624;2022-11-27T23:34:01;8.40;1.00
3876;DHT22;1953;51.222;6.624;2022-11-27T23:38:44;8.50;1.00
3876;DHT22;1953;51.222;6.624;2022-11-27T23:43:27;8.50;1.00
3876;DHT22;1953;51.222;6.624;2022-11-27T23:48:09;8.50;1.00
3876;DHT22;1953;51.222;6.624;2022-11-27T23:52:54;8.60;1.00
3876;DHT22;1953;51.222;6.624;2022-11-27T23:57:36;8.50;1.00
